Salt Lake City, Utah
Current Conditions -  °F | °C
As of 12:53 AM on Friday 31 Oct 2014 (Local Time) from KSLC Reporting Station
Scattered Clouds Scattered Clouds  
Wind Chill: 59°   Ceiling: Unl
Heat Index: 59°   Visibility: 10mi
Dew Point: 27°   Wind: 18mph
Humidity: 29%   Direction: 190°S
Pressure: 30.08"   Gusts: NA
Location:  40.76°N, 111.88°W
Report Text: KSLC 310653Z 19016KT 10SM SCT250 15/M03 A3008 RMK AO2 SLP149 T01501028 402060033
Loading
Personal Weather Stations






























Interactive Weather Map New forecast layout! Learn more

10-Day Weather Forecast

Advertisements
Track Severe Weather on mobile